createdAt,value
2023-02-24T00:08:39.157Z,8.51
2023-02-24T00:18:39.144Z,8.42
2023-02-24T00:28:39.471Z,8.30
2023-02-24T00:38:40.138Z,8.18
2023-02-24T00:48:40.427Z,8.07
2023-02-24T00:58:40.444Z,7.95
2023-02-24T01:08:42.336Z,7.85
2023-02-24T01:18:43.066Z,7.76
2023-02-24T01:28:45.253Z,7.69
2023-02-24T01:38:45.430Z,7.60
2023-02-24T01:48:45.247Z,7.48
2023-02-24T01:58:45.182Z,7.34
2023-02-24T02:08:45.378Z,7.24
2023-02-24T02:18:45.241Z,7.21
2023-02-24T02:28:45.373Z,7.19
2023-02-24T02:38:45.344Z,7.18
2023-02-24T02:48:47.145Z,7.15
2023-02-24T02:58:49.168Z,7.07
2023-02-24T03:09:11.511Z,6.93
2023-02-24T03:19:14.744Z,6.74
2023-02-24T03:29:18.107Z,6.53
2023-02-24T03:39:20.269Z,6.33
2023-02-24T03:49:20.987Z,6.16
2023-02-24T03:59:23.930Z,6.06
2023-02-24T04:09:27.028Z,5.98
2023-02-24T04:19:28.780Z,5.93
2023-02-24T04:29:31.511Z,5.93
2023-02-24T04:39:32.424Z,5.92
2023-02-24T04:49:33.595Z,5.86
2023-02-24T04:59:33.476Z,5.79
2023-02-24T05:09:33.520Z,5.76
2023-02-24T05:19:51.905Z,5.73
2023-02-24T05:29:54.689Z,5.71
2023-02-24T05:39:54.502Z,5.70
2023-02-24T05:49:56.398Z,5.69
2023-02-24T05:59:56.767Z,5.69
2023-02-24T06:09:56.969Z,5.72
2023-02-24T06:19:57.506Z,5.77
2023-02-24T06:29:58.239Z,5.84
2023-02-24T06:39:59.082Z,5.92
2023-02-24T06:49:59.582Z,6.01
2023-02-24T06:59:59.693Z,6.15
2023-02-24T07:09:59.690Z,6.36
2023-02-24T07:20:02.288Z,6.55
2023-02-24T07:30:05.913Z,6.69
2023-02-24T07:40:07.573Z,6.83
2023-02-24T07:50:09.488Z,7.00
2023-02-24T08:00:15.819Z,7.21
2023-02-24T08:10:24.017Z,7.41
2023-02-24T08:20:29.249Z,7.61
2023-02-24T08:30:29.800Z,7.78
2023-02-24T08:40:39.154Z,7.90
2023-02-24T08:50:39.771Z,7.99
2023-02-24T09:00:44.695Z,8.12
2023-02-24T09:10:45.897Z,8.44
2023-02-24T09:21:08.179Z,8.79
2023-02-24T09:31:09.018Z,9.04
2023-02-24T09:41:18.318Z,9.41
2023-02-24T09:51:12.693Z,9.86
2023-02-24T10:01:21.057Z,10.13
2023-02-24T10:11:24.953Z,10.09
2023-02-24T10:21:28.731Z,9.90
2023-02-24T10:31:30.351Z,9.70
2023-02-24T10:41:32.769Z,9.47
2023-02-24T10:51:32.843Z,9.24
2023-02-24T11:01:42.290Z,9.05
2023-02-24T11:12:02.450Z,8.86
2023-02-24T11:22:02.959Z,8.65
2023-02-24T11:32:03.179Z,8.52
2023-02-24T11:42:04.927Z,8.45
2023-02-24T11:52:04.937Z,8.25
2023-02-24T12:02:05.726Z,7.87
2023-02-24T12:12:06.840Z,7.60
2023-02-24T12:22:07.360Z,7.42
2023-02-24T12:32:10.072Z,7.30
2023-02-24T12:42:10.037Z,7.23
2023-02-24T12:52:10.176Z,7.19
2023-02-24T13:02:10.068Z,7.11
2023-02-24T13:12:10.302Z,6.99
2023-02-24T13:22:10.056Z,6.90
2023-02-24T13:32:10.192Z,6.83
2023-02-24T13:42:10.140Z,6.78
2023-02-24T13:52:10.046Z,6.72
2023-02-24T14:02:10.326Z,6.66
2023-02-24T14:12:10.423Z,6.59
2023-02-24T14:22:11.762Z,6.51
2023-02-24T14:32:12.289Z,6.43
2023-02-24T14:42:12.212Z,6.42
2023-02-24T14:52:12.119Z,6.42
2023-02-24T15:02:12.125Z,6.44
2023-02-24T15:12:12.257Z,6.49
2023-02-24T15:22:12.172Z,6.55
2023-02-24T15:32:12.389Z,6.62
2023-02-24T15:42:13.282Z,6.74
2023-02-24T15:52:13.288Z,6.90
2023-02-24T16:02:13.256Z,7.06
2023-02-24T16:12:13.281Z,7.16
2023-02-24T16:22:13.201Z,7.17
2023-02-24T16:32:13.542Z,7.12
2023-02-24T16:42:14.297Z,7.05
2023-02-24T16:52:16.190Z,6.98
2023-02-24T17:02:16.330Z,6.89
2023-02-24T17:12:16.341Z,6.81
2023-02-24T17:22:17.310Z,6.76
2023-02-24T17:32:17.525Z,6.74
2023-02-24T17:42:17.344Z,6.71
2023-02-24T17:52:17.415Z,6.69
2023-02-24T18:02:17.535Z,6.76
2023-02-24T18:12:18.237Z,6.85
2023-02-24T18:22:18.428Z,6.94
2023-02-24T18:32:18.694Z,7.01
2023-02-24T18:42:19.417Z,7.04
2023-02-24T18:52:19.366Z,7.03
2023-02-24T19:02:19.524Z,7.00
2023-02-24T19:12:20.068Z,6.99
2023-02-24T19:22:20.446Z,7.00
2023-02-24T19:32:20.612Z,6.96
2023-02-24T19:42:20.501Z,6.84
2023-02-24T19:52:33.597Z,6.72
2023-02-24T20:02:33.482Z,6.66
2023-02-24T20:12:33.567Z,6.67
2023-02-24T20:22:33.587Z,6.70
2023-02-24T20:32:33.834Z,6.69
2023-02-24T20:42:34.613Z,6.60
2023-02-24T20:52:34.851Z,6.46
2023-02-24T21:02:34.682Z,6.31
2023-02-24T21:12:34.721Z,6.13
2023-02-24T21:22:34.625Z,5.96
2023-02-24T21:32:34.672Z,5.72
2023-02-24T21:42:34.634Z,5.35
2023-02-24T21:52:34.994Z,5.03
2023-02-24T22:02:35.694Z,4.84
2023-02-24T22:12:35.662Z,4.85
2023-02-24T22:22:35.823Z,4.96
2023-02-24T22:32:35.748Z,5.10
2023-02-24T22:42:35.702Z,5.31
2023-02-24T22:52:35.789Z,5.49
2023-02-24T23:02:35.756Z,5.63
2023-02-24T23:12:37.127Z,5.72
2023-02-24T23:22:38.070Z,5.76
2023-02-24T23:32:37.977Z,5.79
2023-02-24T23:42:37.739Z,5.80
2023-02-24T23:52:37.865Z,5.73
